Time;durP1;ratioP1;P1;durP2;ratioP2;P2;SDS_P1;SDS_P2;PMS_P1;PMS_P2;Temp;Humidity;BMP_temperature;BMP_pressure;BME280_temperature;BME280_humidity;BME280_pressure;Samples;Min_cycle;Max_cycle;Signal;HPM_P1;HPM_P2
2021/01/06 00:01:02;;;;;;;7.13;2.30;;;;;;;2.47;85.79;102108.81;5050592;28;20443;-59
2021/01/06 00:03:29;;;;;;;8.57;2.45;;;;;;;2.47;85.68;102114.31;5050426;28;20045;-58
2021/01/06 00:05:58;;;;;;;9.20;2.28;;;;;;;2.48;85.90;102114.09;5051023;28;20041;-54
2021/01/06 00:08:26;;;;;;;8.45;2.30;;;;;;;2.48;85.55;102116.00;5049692;28;20546;-57
2021/01/06 00:10:54;;;;;;;8.55;2.15;;;;;;;2.51;85.69;102116.44;5049661;28;20499;-58
2021/01/06 00:13:22;;;;;;;7.82;1.90;;;;;;;2.50;85.58;102108.38;5050763;28;20052;-57
2021/01/06 00:15:49;;;;;;;9.57;3.00;;;;;;;2.52;85.75;102111.78;5050111;28;20071;-57
2021/01/06 00:18:17;;;;;;;7.82;2.40;;;;;;;2.54;85.50;102109.66;5050482;28;20127;-57
2021/01/06 00:20:44;;;;;;;7.55;2.13;;;;;;;2.54;85.57;102105.00;5050357;28;20049;-55
2021/01/06 00:23:12;;;;;;;7.15;2.30;;;;;;;2.58;85.63;102111.78;5049148;28;20143;-56
2021/01/06 00:25:41;;;;;;;10.00;2.47;;;;;;;2.59;85.37;102112.63;5050737;28;20084;-58
2021/01/06 00:28:09;;;;;;;11.20;3.55;;;;;;;2.59;85.52;102118.13;5049788;28;20033;-60
2021/01/06 00:30:38;;;;;;;9.23;2.15;;;;;;;2.62;85.39;102120.44;5050669;28;20399;-54
2021/01/06 00:33:08;;;;;;;5.85;2.20;;;;;;;2.60;85.50;102104.09;5050235;28;20463;-56
2021/01/06 00:35:35;;;;;;;8.57;2.65;;;;;;;2.61;85.52;102113.22;5049703;28;20071;-57
2021/01/06 00:38:03;;;;;;;10.25;2.40;;;;;;;2.55;85.34;102117.69;5050134;28;20135;-54
2021/01/06 00:40:32;;;;;;;7.20;2.20;;;;;;;2.57;85.17;102099.06;5050483;28;20067;-55
2021/01/06 00:43:01;;;;;;;9.98;2.20;;;;;;;2.56;85.31;102118.56;5049747;28;20045;-57
2021/01/06 00:45:28;;;;;;;8.07;2.08;;;;;;;2.54;85.42;102110.50;5050059;28;20476;-59
2021/01/06 00:47:55;;;;;;;8.20;2.65;;;;;;;2.54;85.03;102116.00;5048841;28;20052;-54
2021/01/06 00:50:24;;;;;;;9.43;2.40;;;;;;;2.51;85.18;102113.69;5049671;28;20037;-58
2021/01/06 00:52:52;;;;;;;8.32;2.40;;;;;;;2.52;85.47;102114.53;5048645;28;20061;-58
2021/01/06 00:55:20;;;;;;;9.20;2.33;;;;;;;2.52;85.25;102114.53;5043959;28;20049;-55
2021/01/06 00:57:47;;;;;;;9.02;2.47;;;;;;;2.49;85.33;102113.03;5065139;28;20056;-56
2021/01/06 01:00:17;;;;;;;8.15;2.20;;;;;;;2.50;85.08;102111.13;5048532;28;20483;-58
2021/01/06 01:02:49;;;;;;;8.25;2.22;;;;;;;2.49;85.05;102117.72;5049066;28;20125;-57
2021/01/06 01:05:18;;;;;;;7.83;1.97;;;;;;;2.51;84.95;102107.31;5048160;28;20147;-59
2021/01/06 01:07:45;;;;;;;10.48;2.97;;;;;;;2.53;85.36;102113.47;5050290;28;20051;-59
2021/01/06 01:10:32;;;;;;;6.93;2.40;;;;;;;2.53;85.06;102113.47;5049711;28;20060;-59
2021/01/06 01:13:00;;;;;;;5.65;2.00;;;;;;;2.51;84.99;102112.84;5030457;28;20081;-59
2021/01/06 01:15:32;;;;;;;6.22;2.25;;;;;;;2.49;85.05;102114.94;5045871;28;20120;-56
2021/01/06 01:17:59;;;;;;;10.10;2.28;;;;;;;2.51;84.85;102104.56;5029947;28;20046;-55
2021/01/06 01:20:26;;;;;;;9.73;2.30;;;;;;;2.51;84.92;102113.69;5044213;28;20052;-56
2021/01/06 01:22:53;;;;;;;6.55;2.08;;;;;;;2.51;84.43;102108.16;5050078;28;20069;-56
2021/01/06 01:25:22;;;;;;;6.60;1.90;;;;;;;2.51;84.69;102108.16;5049116;28;20045;-58
2021/01/06 01:27:49;;;;;;;8.25;2.38;;;;;;;2.53;84.91;102111.56;5049806;28;20045;-58
2021/01/06 01:30:19;;;;;;;7.10;1.98;;;;;;;2.53;84.59;102103.28;5049957;28;20045;-57
2021/01/06 01:32:47;;;;;;;6.45;1.98;;;;;;;2.52;84.60;102109.03;5049238;28;20095;-55
2021/01/06 01:35:16;;;;;;;8.00;2.58;;;;;;;2.50;84.66;102103.72;5052550;28;20076;-58
2021/01/06 01:37:44;;;;;;;8.77;2.20;;;;;;;2.50;84.66;102113.91;5053502;28;20376;-55
2021/01/06 01:40:16;;;;;;;7.30;2.05;;;;;;;2.52;84.39;102112.63;5052777;28;20450;-59
2021/01/06 01:42:44;;;;;;;5.55;2.03;;;;;;;2.50;84.42;102105.63;5053257;28;20047;-57
2021/01/06 01:45:12;;;;;;;6.28;2.00;;;;;;;2.52;84.35;102106.25;5053212;28;20128;-57
2021/01/06 01:47:46;;;;;;;7.32;2.17;;;;;;;2.50;84.46;102100.13;5053037;28;20051;-57
2021/01/06 01:50:13;;;;;;;6.10;2.47;;;;;;;2.50;84.42;102105.63;5053164;28;20041;-58
2021/01/06 01:52:46;;;;;;;8.35;2.15;;;;;;;2.48;84.46;102097.56;5052264;28;20567;-59
2021/01/06 01:55:16;;;;;;;7.50;2.33;;;;;;;2.46;84.47;102107.13;5053252;28;20049;-60
2021/01/06 01:57:49;;;;;;;6.78;2.33;;;;;;;2.47;84.32;102104.16;5053165;28;20132;-57
2021/01/06 02:00:20;;;;;;;6.65;2.17;;;;;;;2.46;84.52;102104.34;5052738;28;20049;-57
2021/01/06 02:03:03;;;;;;;7.30;2.33;;;;;;;2.43;84.17;102103.72;5050048;28;20052;-55
2021/01/06 02:05:34;;;;;;;6.05;2.22;;;;;;;2.45;84.16;102099.91;5052718;28;20123;-55
2021/01/06 02:08:08;;;;;;;7.82;2.00;;;;;;;2.44;84.34;102093.56;5051365;28;20137;-56
2021/01/06 02:10:38;;;;;;;7.88;2.10;;;;;;;2.45;84.15;102088.88;5052902;28;20041;-56
2021/01/06 02:13:13;;;;;;;5.05;1.90;;;;;;;2.46;84.13;102082.31;5049287;28;20103;-58
2021/01/06 02:15:46;;;;;;;12.60;2.63;;;;;;;2.45;84.25;102097.16;5052005;28;20041;-54
2021/01/06 02:18:14;;;;;;;10.13;2.50;;;;;;;2.41;84.21;102078.31;5052986;28;20072;-58
2021/01/06 02:20:41;;;;;;;6.63;2.28;;;;;;;2.43;84.19;102089.94;5052515;28;20111;-57
2021/01/06 02:23:09;;;;;;;5.07;2.50;;;;;;;2.43;84.08;102089.94;5052267;28;20063;-59
2021/01/06 02:25:39;;;;;;;4.90;2.20;;;;;;;2.45;84.09;102088.88;5052802;28;20492;-56
2021/01/06 02:28:06;;;;;;;8.93;2.28;;;;;;;2.44;84.26;102077.03;5051622;28;20044;-56
2021/01/06 02:30:33;;;;;;;6.82;2.10;;;;;;;2.43;84.23;102089.94;5052744;28;20076;-56
2021/01/06 02:33:00;;;;;;;8.88;2.30;;;;;;;2.44;84.36;102082.53;5052076;28;20484;-57
2021/01/06 02:35:27;;;;;;;7.93;2.38;;;;;;;2.44;84.23;102082.53;5051892;28;20059;-58
2021/01/06 02:37:54;;;;;;;6.25;1.90;;;;;;;2.43;84.36;102081.69;5051946;28;20048;-58
2021/01/06 02:40:25;;;;;;;9.23;2.88;;;;;;;2.44;84.82;102090.78;5052396;28;20048;-57
2021/01/06 02:42:52;;;;;;;5.18;2.33;;;;;;;2.43;84.46;102086.34;5051613;28;20080;-58
2021/01/06 02:45:20;;;;;;;8.10;2.40;;;;;;;2.41;84.78;102081.06;5051879;28;20504;-58
2021/01/06 02:47:49;;;;;;;7.90;2.03;;;;;;;2.41;84.66;102078.31;5051854;28;20059;-55
2021/01/06 02:50:21;;;;;;;8.35;2.67;;;;;;;2.40;84.80;102078.50;5051946;28;20068;-59
2021/01/06 02:52:52;;;;;;;6.32;1.83;;;;;;;2.41;84.70;102080.22;5051761;28;20053;-57
2021/01/06 02:55:20;;;;;;;6.25;2.47;;;;;;;2.39;84.81;102079.59;5052325;28;20392;-57
2021/01/06 02:57:47;;;;;;;7.47;2.10;;;;;;;2.40;84.82;102071.09;5051485;28;20053;-57
2021/01/06 03:00:20;;;;;;;7.50;2.63;;;;;;;2.41;84.81;102075.53;5052201;28;20072;-56
2021/01/06 03:02:47;;;;;;;;;;;;;;;2.37;84.63;102074.31;5052369;28;20076;-54
2021/01/06 03:05:21;;;;;;;6.68;2.50;;;;;;;2.37;84.82;102071.56;5040903;28;19921;-58
2021/01/06 03:07:49;;;;;;;5.88;2.17;;;;;;;2.40;84.70;102071.09;5051635;28;20069;-53
2021/01/06 03:10:18;;;;;;;6.18;2.00;;;;;;;2.42;84.70;102073.63;5051177;28;20441;-57
2021/01/06 03:12:48;;;;;;;7.18;2.13;;;;;;;2.41;84.76;102064.53;5051721;28;20040;-56
2021/01/06 03:15:18;;;;;;;4.55;1.80;;;;;;;2.43;84.73;102061.56;5051745;28;20488;-55
2021/01/06 03:17:45;;;;;;;6.07;1.90;;;;;;;2.44;84.66;102071.50;5050821;28;20476;-57
2021/01/06 03:20:16;;;;;;;7.53;2.08;;;;;;;2.45;84.84;102061.34;5051638;28;20519;-57
2021/01/06 03:22:48;;;;;;;6.35;2.00;;;;;;;2.45;84.61;102064.94;5051927;28;20044;-56
2021/01/06 03:25:17;;;;;;;4.67;1.90;;;;;;;2.46;84.59;102060.28;5051090;28;20048;-55
2021/01/06 03:27:46;;;;;;;5.57;1.85;;;;;;;2.44;84.64;102055.00;5051591;28;20076;-57
2021/01/06 03:30:19;;;;;;;9.32;1.73;;;;;;;2.47;84.64;102053.72;5051221;28;20458;-58
2021/01/06 03:32:53;;;;;;;8.07;2.10;;;;;;;2.47;84.86;102056.47;5050891;28;20072;-57
2021/01/06 03:35:27;;;;;;;6.03;2.45;;;;;;;2.46;84.66;102047.34;5051488;28;20045;-55
2021/01/06 03:37:59;;;;;;;9.23;2.20;;;;;;;2.47;84.63;102042.69;5051827;28;20091;-57
2021/01/06 03:40:29;;;;;;;5.10;1.80;;;;;;;2.48;84.61;102047.16;5051314;28;20099;-55
2021/01/06 03:42:57;;;;;;;7.65;2.22;;;;;;;2.47;84.67;102048.22;5051549;28;20290;-57
2021/01/06 03:45:29;;;;;;;8.48;2.28;;;;;;;2.46;84.60;102043.75;5050273;28;20049;-55
2021/01/06 03:48:02;;;;;;;9.05;2.53;;;;;;;2.45;84.56;102037.41;5051445;28;20055;-55
2021/01/06 03:50:34;;;;;;;5.15;1.83;;;;;;;2.47;84.60;102038.03;5050865;28;20139;-56
2021/01/06 03:53:04;;;;;;;;;;;;;;;2.40;84.42;102040.78;5051091;28;20437;-50
2021/01/06 03:55:51;;;;;;;5.18;1.92;;;;;;;2.39;84.86;102041.88;5050412;28;19992;-57
2021/01/06 03:58:42;;;;;;;4.60;2.00;;;;;;;2.42;84.59;102041.44;5030974;28;20064;-56
2021/01/06 04:01:31;;;;;;;4.65;2.25;;;;;;;2.40;84.54;102027.03;5047355;28;20051;-53
2021/01/06 04:04:08;;;;;;;5.10;2.05;;;;;;;2.38;84.51;102012.66;5051944;28;20048;-56
2021/01/06 04:06:37;;;;;;;4.65;1.60;;;;;;;2.39;84.50;102019.00;5050976;28;20542;-57
2021/01/06 04:09:07;;;;;;;5.78;1.80;;;;;;;2.37;84.45;102008.19;5051928;28;20406;-57
2021/01/06 04:11:36;;;;;;;7.28;2.03;;;;;;;2.38;84.39;102007.13;5051362;28;20051;-54
2021/01/06 04:14:04;;;;;;;4.65;1.60;;;;;;;2.38;84.21;102006.28;5051277;28;20407;-55
2021/01/06 04:16:31;;;;;;;5.63;1.83;;;;;;;2.38;84.41;102003.53;5051161;28;20047;-52
2021/01/06 04:18:58;;;;;;;5.28;1.83;;;;;;;2.35;84.65;102004.81;5051776;28;20442;-59
2021/01/06 04:21:29;;;;;;;8.20;2.33;;;;;;;2.33;84.16;102004.19;5051225;28;20048;-55
2021/01/06 04:23:56;;;;;;;6.35;1.77;;;;;;;2.30;84.44;102004.63;5051851;28;20045;-58
2021/01/06 04:26:24;;;;;;;8.70;2.00;;;;;;;2.28;84.61;102009.50;5051354;28;20033;-57
2021/01/06 04:28:50;;;;;;;4.53;1.48;;;;;;;2.28;84.58;102003.13;5050917;28;20048;-59
2021/01/06 04:31:21;;;;;;;4.25;1.67;;;;;;;2.24;84.58;102004.63;5051214;28;20098;-58
2021/01/06 04:33:54;;;;;;;13.50;2.53;;;;;;;2.22;84.71;102002.09;5051521;28;20157;-57
2021/01/06 04:36:25;;;;;;;4.60;1.80;;;;;;;2.17;84.98;102004.66;5050617;28;20484;-56
2021/01/06 04:38:56;;;;;;;5.93;1.67;;;;;;;2.15;85.18;102001.28;5051475;28;20069;-57
2021/01/06 04:41:35;;;;;;;4.15;1.65;;;;;;;2.11;85.03;101997.25;5050690;28;20044;-55
2021/01/06 04:44:25;;;;;;;5.20;1.60;;;;;;;2.07;85.02;101999.59;5051644;28;20041;-54
2021/01/06 04:47:11;;;;;;;5.85;1.38;;;;;;;2.02;85.04;101996.63;5051181;28;20048;-59
2021/01/06 04:49:48;;;;;;;4.60;1.70;;;;;;;1.97;85.25;101998.34;5050814;28;20049;-56
2021/01/06 04:52:39;;;;;;;8.23;1.92;;;;;;;1.94;85.59;101990.53;5050647;28;20472;-55
2021/01/06 04:55:20;;;;;;;6.63;1.80;;;;;;;1.92;85.48;101995.38;5051312;28;20049;-58
2021/01/06 04:58:01;;;;;;;5.97;2.10;;;;;;;1.93;85.63;101991.56;5050802;28;20135;-55
2021/01/06 05:00:37;;;;;;;5.70;1.98;;;;;;;1.96;85.97;101996.66;5051085;28;20052;-56
2021/01/06 05:03:23;;;;;;;3.92;1.60;;;;;;;1.99;85.91;101988.81;5050630;28;20476;-56
2021/01/06 05:05:59;;;;;;;4.25;2.00;;;;;;;2.01;85.67;101985.81;5051250;28;20071;-59
2021/01/06 05:08:32;;;;;;;3.95;2.00;;;;;;;2.02;85.73;101982.00;5052593;28;20049;-59
2021/01/06 05:11:02;;;;;;;;;;;;;;;2.01;85.92;101988.56;5055431;28;20072;-55
2021/01/06 05:13:36;;;;;;;6.90;1.40;;;;;;;2.02;85.60;101984.75;5054450;28;20391;-57
2021/01/06 05:16:05;;;;;;;5.68;1.73;;;;;;;2.04;85.63;101983.50;5055033;28;20124;-58
2021/01/06 05:18:33;;;;;;;4.88;1.60;;;;;;;2.04;85.59;101983.50;5053916;28;20045;-57
2021/01/06 05:21:00;;;;;;;7.03;1.80;;;;;;;2.03;85.63;101983.72;5054800;28;20555;-53
2021/01/06 05:23:36;;;;;;;8.05;2.15;;;;;;;2.02;85.64;101984.75;5054224;28;20048;-55
2021/01/06 05:26:05;;;;;;;5.32;1.58;;;;;;;1.99;85.65;101986.06;5054729;28;20044;-59
2021/01/06 05:28:32;;;;;;;7.65;2.15;;;;;;;1.95;86.01;101976.53;5054212;28;20416;-54
2021/01/06 05:31:00;;;;;;;4.10;1.45;;;;;;;1.92;85.91;101978.88;5054045;28;20049;-56
2021/01/06 05:33:31;;;;;;;5.10;1.85;;;;;;;1.88;86.10;101985.88;5054269;28;20110;-56
2021/01/06 05:35:59;;;;;;;4.63;1.90;;;;;;;1.82;86.17;101976.53;5054766;28;20080;-56
2021/01/06 05:38:26;;;;;;;6.05;2.10;;;;;;;1.78;85.79;101980.81;5053631;28;20291;-56
2021/01/06 05:40:53;;;;;;;6.05;2.20;;;;;;;1.73;86.21;101981.44;5054504;28;20049;-55
2021/01/06 05:43:33;;;;;;;4.03;1.83;;;;;;;1.70;86.11;101986.53;5052952;28;20099;-54
2021/01/06 05:46:02;;;;;;;7.50;1.95;;;;;;;1.65;86.17;101987.16;5053666;28;20053;-54
2021/01/06 05:48:34;;;;;;;6.53;2.30;;;;;;;1.62;86.17;101990.31;5053796;28;20408;-55
2021/01/06 05:51:07;;;;;;;4.22;1.40;;;;;;;1.59;86.54;101985.28;5054796;28;20484;-54
2021/01/06 05:53:38;;;;;;;7.20;1.65;;;;;;;1.56;86.32;101990.34;5053474;28;20045;-59
2021/01/06 05:56:22;;;;;;;5.70;1.83;;;;;;;1.54;86.44;101992.47;5054196;28;20045;-57
2021/01/06 05:58:53;;;;;;;3.60;1.55;;;;;;;1.52;86.53;101992.66;5052999;28;20069;-54
2021/01/06 06:01:34;;;;;;;3.45;1.40;;;;;;;1.51;86.83;101993.72;5054349;28;20492;-58
2021/01/06 06:04:14;;;;;;;4.93;1.73;;;;;;;1.51;86.96;101996.47;5053785;28;20120;-56
2021/01/06 06:06:51;;;;;;;3.72;1.70;;;;;;;1.51;86.99;101988.22;5053600;28;20460;-55
2021/01/06 06:09:32;;;;;;;4.05;2.00;;;;;;;1.53;86.73;101990.78;5053277;28;20123;-50
2021/01/06 06:12:17;;;;;;;6.97;2.28;;;;;;;1.58;87.36;101996.50;5054140;28;20074;-55
2021/01/06 06:15:02;;;;;;;4.47;1.88;;;;;;;1.65;87.45;101998.16;5052921;28;20128;-56
2021/01/06 06:17:39;;;;;;;6.68;2.17;;;;;;;1.71;87.24;101994.56;5050416;28;20047;-53
2021/01/06 06:20:18;;;;;;;6.32;2.70;;;;;;;1.79;87.07;101995.41;5051469;28;20474;-56
2021/01/06 06:22:56;;;;;;;5.75;2.38;;;;;;;1.84;87.28;101993.69;5051576;28;20068;-57
2021/01/06 06:25:27;;;;;;;5.75;2.30;;;;;;;1.89;87.37;101998.56;5051595;28;20061;-54
2021/01/06 06:28:05;;;;;;;8.18;2.20;;;;;;;1.96;87.34;102004.91;5053111;28;20406;-53
2021/01/06 06:30:37;;;;;;;6.03;2.30;;;;;;;1.99;87.02;101990.72;5053005;28;20657;-55
2021/01/06 06:33:20;;;;;;;6.68;2.50;;;;;;;2.01;87.19;101989.44;5053640;28;20077;-56
2021/01/06 06:35:49;;;;;;;;;;;;;;;1.96;87.09;101997.50;5052962;28;20040;-55
2021/01/06 06:38:18;;;;;;;7.20;2.28;;;;;;;1.92;87.33;102004.50;5053107;28;20371;-56
2021/01/06 06:41:00;;;;;;;5.50;2.28;;;;;;;1.97;87.21;102003.84;5053087;28;20052;-56
2021/01/06 06:43:39;;;;;;;8.38;3.10;;;;;;;1.99;87.46;101999.84;5052111;28;20057;-56
2021/01/06 06:46:30;;;;;;;3.95;2.13;;;;;;;2.00;87.54;101996.00;5052750;28;20079;-59
2021/01/06 06:49:06;;;;;;;5.53;2.42;;;;;;;2.02;87.31;101995.78;5033182;28;20037;-59
2021/01/06 06:51:38;;;;;;;5.97;2.08;;;;;;;2.04;87.19;101994.50;5047910;28;20574;-56
2021/01/06 06:54:15;;;;;;;5.97;2.35;;;;;;;2.08;87.18;102005.94;5053112;28;20522;-58
2021/01/06 06:56:48;;;;;;;8.25;2.80;;;;;;;2.08;87.38;101995.78;5052129;28;20401;-56
2021/01/06 06:59:24;;;;;;;8.38;2.95;;;;;;;2.12;87.33;102001.69;5052916;28;20053;-59
2021/01/06 07:01:53;;;;;;;6.15;2.63;;;;;;;2.13;87.36;102003.41;5049661;28;20053;-58
2021/01/06 07:04:25;;;;;;;5.47;2.35;;;;;;;2.15;87.51;102001.28;5051443;28;20053;-57
2021/01/06 07:06:54;;;;;;;6.85;2.53;;;;;;;2.16;87.23;102002.97;5052562;28;20049;-56
2021/01/06 07:09:28;;;;;;;6.15;2.30;;;;;;;2.18;87.34;101991.75;5052223;28;20443;-57
2021/01/06 07:12:02;;;;;;;9.85;3.05;;;;;;;2.18;87.29;101983.47;5052405;28;20125;-58
2021/01/06 07:14:31;;;;;;;7.68;2.63;;;;;;;2.18;87.40;101992.59;5052531;28;20131;-55
2021/01/06 07:17:11;;;;;;;5.72;2.42;;;;;;;2.20;87.15;101986.88;5051469;28;20123;-55
2021/01/06 07:19:52;;;;;;;8.13;2.65;;;;;;;2.19;87.17;101993.44;5052388;28;20037;-57
2021/01/06 07:22:30;;;;;;;4.63;1.80;;;;;;;2.20;87.50;101993.19;5052145;28;20403;-57
2021/01/06 07:25:06;;;;;;;5.47;1.83;;;;;;;2.22;87.54;101998.47;5051863;28;20051;-55
2021/01/06 07:27:34;;;;;;;9.23;2.90;;;;;;;2.23;87.36;102002.94;5052309;28;20036;-58
2021/01/06 07:30:01;;;;;;;6.35;2.30;;;;;;;2.23;87.32;102006.53;5052268;28;20087;-56
2021/01/06 07:32:35;;;;;;;7.13;2.25;;;;;;;2.24;87.64;102005.47;5049928;28;20037;-57
2021/01/06 07:35:09;;;;;;;6.45;2.40;;;;;;;2.24;87.54;102007.38;5052513;28;20059;-56
2021/01/06 07:37:39;;;;;;;4.85;2.00;;;;;;;2.23;87.30;102006.53;5051428;28;20049;-56
2021/01/06 07:40:22;;;;;;;5.70;2.53;;;;;;;2.24;87.17;102007.38;5052176;28;20045;-56
2021/01/06 07:42:53;;;;;;;6.20;2.30;;;;;;;2.24;87.79;102019.25;5051571;28;20045;-58
2021/01/06 07:45:32;;;;;;;6.20;2.80;;;;;;;2.24;87.49;102012.88;5051502;28;20049;-55
2021/01/06 07:48:24;;;;;;;5.38;2.47;;;;;;;2.24;87.59;102012.88;5051992;28;20282;-57
2021/01/06 07:50:59;;;;;;;6.00;2.38;;;;;;;2.23;87.49;102012.03;5052103;28;20041;-59
2021/01/06 07:53:28;;;;;;;7.82;2.70;;;;;;;2.25;87.75;102011.81;5051141;28;20041;-58
2021/01/06 07:55:59;;;;;;;3.75;1.83;;;;;;;2.25;87.71;102007.16;5051632;28;20055;-54
2021/01/06 07:58:32;;;;;;;4.95;2.20;;;;;;;2.26;87.71;102006.09;5050546;28;20395;-56
2021/01/06 08:01:04;;;;;;;6.28;2.45;;;;;;;2.28;87.76;102011.41;5051635;28;20077;-59
2021/01/06 08:03:42;;;;;;;7.78;2.42;;;;;;;2.28;87.71;102009.50;5049439;28;20053;-55
2021/01/06 08:06:09;;;;;;;3.75;1.88;;;;;;;2.28;87.83;102006.72;5049943;28;20056;-57
2021/01/06 08:08:44;;;;;;;6.05;1.98;;;;;;;2.29;87.99;102005.66;5051269;28;20049;-55
2021/01/06 08:11:15;;;;;;;5.63;2.13;;;;;;;2.29;87.66;102008.44;5051756;28;20419;-56
2021/01/06 08:14:00;;;;;;;8.82;2.25;;;;;;;2.32;87.93;102005.25;5050652;28;20496;-53
2021/01/06 08:16:36;;;;;;;5.10;2.05;;;;;;;2.31;88.18;102011.81;5051636;28;20049;-58
2021/01/06 08:19:15;;;;;;;7.63;2.10;;;;;;;2.33;87.73;102009.69;5051452;28;20132;-55
2021/01/06 08:21:52;;;;;;;6.47;2.10;;;;;;;2.35;87.84;102012.22;5051141;28;20041;-59
2021/01/06 08:24:28;;;;;;;6.47;1.88;;;;;;;2.37;87.89;102019.22;5051131;28;20059;-52
2021/01/06 08:26:57;;;;;;;7.93;2.35;;;;;;;2.37;87.73;102019.22;5051094;28;20122;-59
2021/01/06 08:29:27;;;;;;;5.10;1.92;;;;;;;2.41;87.99;102019.59;5051148;28;20124;-56
2021/01/06 08:31:58;;;;;;;6.50;2.60;;;;;;;2.41;87.75;102017.69;5051492;28;20088;-58
2021/01/06 08:34:31;;;;;;;3.70;1.60;;;;;;;2.45;87.81;102020.03;5050336;28;20125;-57
2021/01/06 08:37:04;;;;;;;4.40;1.80;;;;;;;2.45;87.73;102018.13;5051210;28;20128;-58
2021/01/06 08:39:34;;;;;;;8.05;2.10;;;;;;;2.47;87.86;102027.00;5050932;28;20049;-60
2021/01/06 08:42:11;;;;;;;5.05;2.17;;;;;;;2.49;87.60;102024.03;5050773;28;20049;-58
2021/01/06 08:44:41;;;;;;;5.82;2.30;;;;;;;2.49;87.91;102024.88;5054998;28;20047;-57
2021/01/06 08:47:12;;;;;;;5.55;1.90;;;;;;;2.52;87.57;102026.38;5055235;28;20510;-57
2021/01/06 08:49:42;;;;;;;6.45;2.28;;;;;;;2.54;87.88;102015.97;5054259;28;20048;-59
2021/01/06 08:52:27;;;;;;;3.60;1.45;;;;;;;2.57;87.92;102021.06;5055149;28;20044;-58
2021/01/06 08:55:00;;;;;;;5.25;1.45;;;;;;;2.58;87.64;102020.84;5054350;28;20098;-58
2021/01/06 08:57:33;;;;;;;7.05;1.70;;;;;;;2.60;87.52;102020.63;5053726;28;20045;-54
2021/01/06 09:00:21;;;;;;;5.18;1.67;;;;;;;2.63;87.48;102014.66;5054457;28;20468;-57
2021/01/06 09:02:52;;;;;;;4.75;1.48;;;;;;;2.64;87.69;102021.84;5054438;28;20083;-55
2021/01/06 09:05:42;;;;;;;7.15;2.40;;;;;;;2.68;87.60;102025.88;5053372;28;20356;-56
2021/01/06 09:08:12;;;;;;;3.78;1.60;;;;;;;2.67;87.54;102018.66;5054798;28;20089;-58
2021/01/06 09:10:43;;;;;;;4.70;1.73;;;;;;;2.70;87.58;102015.47;5054044;28;20586;-56
2021/01/06 09:13:14;;;;;;;4.25;1.65;;;;;;;2.70;87.55;102016.31;5054854;28;20124;-55
2021/01/06 09:15:46;;;;;;;8.83;1.80;;;;;;;2.71;87.41;102009.75;5053972;28;20136;-56
2021/01/06 09:18:18;;;;;;;6.82;2.00;;;;;;;2.71;87.29;102008.91;5054475;28;20123;-58
2021/01/06 09:21:01;;;;;;;4.50;1.30;;;;;;;2.73;87.64;102004.03;5054336;28;20526;-56
2021/01/06 09:23:29;;;;;;;5.70;1.73;;;;;;;2.73;87.43;102004.03;5054187;28;20115;-55
2021/01/06 09:25:57;;;;;;;7.35;1.80;;;;;;;2.75;87.57;102011.00;5054191;28;20055;-56
2021/01/06 09:28:26;;;;;;;6.00;2.10;;;;;;;2.79;87.48;102013.34;5054566;28;20140;-58
2021/01/06 09:30:54;;;;;;;5.72;1.90;;;;;;;2.81;87.47;102012.03;5053649;28;20057;-56
2021/01/06 09:33:23;;;;;;;4.20;1.98;;;;;;;2.82;87.38;102005.44;5054193;28;20049;-54
2021/01/06 09:35:50;;;;;;;4.25;1.48;;;;;;;2.85;87.39;102015.19;5053906;28;20081;-58
2021/01/06 09:38:27;;;;;;;4.05;1.50;;;;;;;2.85;87.42;102018.78;5053672;28;20131;-56
2021/01/06 09:40:57;;;;;;;3.38;1.40;;;;;;;2.88;87.31;102012.84;5054205;28;20033;-55
2021/01/06 09:43:34;;;;;;;6.78;1.95;;;;;;;2.92;87.36;102010.50;5054262;28;20083;-58
2021/01/06 09:46:01;;;;;;;2.70;1.38;;;;;;;2.90;87.26;102010.72;5053682;28;20037;-57
2021/01/06 09:48:29;;;;;;;7.75;1.83;;;;;;;2.93;87.34;102014.94;5054144;28;20044;-56
2021/01/06 09:51:00;;;;;;;5.60;2.03;;;;;;;2.94;87.14;102017.50;5053695;28;20530;-58
2021/01/06 09:53:31;;;;;;;4.40;1.85;;;;;;;2.94;87.12;102011.97;5050684;28;20128;-57
2021/01/06 09:55:58;;;;;;;6.35;2.33;;;;;;;2.95;87.20;102013.66;5052750;28;20052;-57
2021/01/06 09:58:30;;;;;;;4.47;1.75;;;;;;;2.97;87.13;102011.53;5050748;28;20377;-55
2021/01/06 10:01:06;;;;;;;3.33;1.45;;;;;;;2.98;87.10;102009.63;5054330;28;20045;-56
2021/01/06 10:03:36;;;;;;;4.53;2.05;;;;;;;3.00;87.14;102004.72;5053827;28;20037;-58
2021/01/06 10:06:18;;;;;;;5.35;2.00;;;;;;;3.02;87.16;102002.56;5053444;28;20583;-54
2021/01/06 10:08:49;;;;;;;4.73;2.17;;;;;;;3.03;87.05;102009.78;5052539;28;20041;-54
2021/01/06 10:11:47;;;;;;;5.30;1.90;;;;;;;3.07;87.12;102013.78;5053998;28;20116;-58
2021/01/06 10:14:25;;;;;;;3.17;1.38;;;;;;;3.07;87.01;102009.13;5050771;28;20419;-55
2021/01/06 10:16:56;;;;;;;3.35;1.30;;;;;;;3.13;87.14;102009.31;5053289;28;20044;-57
2021/01/06 10:19:38;;;;;;;5.93;1.67;;;;;;;3.16;87.04;102004.22;5052123;28;20041;-57
2021/01/06 10:22:14;;;;;;;6.20;1.75;;;;;;;3.17;87.07;102007.81;5053582;28;20048;-59
2021/01/06 10:25:01;;;;;;;3.92;1.52;;;;;;;3.20;87.04;102004.63;5053593;28;20120;-57
2021/01/06 10:27:31;;;;;;;5.80;2.13;;;;;;;3.22;87.02;101992.25;5052539;28;20506;-58
2021/01/06 10:30:09;;;;;;;3.67;1.27;;;;;;;3.25;86.91;101990.97;5053616;28;20401;-58
2021/01/06 10:32:44;;;;;;;5.47;2.13;;;;;;;3.27;87.50;101988.84;5053071;28;20128;-57
2021/01/06 10:35:27;;;;;;;7.68;2.22;;;;;;;3.29;87.01;101993.06;5052712;28;20067;-60
2021/01/06 10:37:55;;;;;;;5.60;2.00;;;;;;;3.30;87.17;101982.88;5052924;28;20051;-57
2021/01/06 10:40:34;;;;;;;4.68;1.80;;;;;;;3.34;86.87;101975.84;5052697;28;20047;-59
2021/01/06 10:43:30;;;;;;;6.22;2.03;;;;;;;3.36;87.01;101969.06;5053156;28;20414;-57
2021/01/06 10:45:58;;;;;;;4.57;1.67;;;;;;;3.36;86.90;101976.47;5045750;28;20045;-57
2021/01/06 10:48:42;;;;;;;4.40;1.45;;;;;;;3.38;86.99;101964.16;5052373;28;20055;-57
2021/01/06 10:51:09;;;;;;;5.25;1.48;;;;;;;3.37;86.84;101961.63;5053077;28;20048;-58
2021/01/06 10:53:40;;;;;;;5.30;1.20;;;;;;;3.40;86.66;101961.16;5052551;28;20085;-57
2021/01/06 10:56:09;;;;;;;7.05;1.50;;;;;;;3.40;86.60;101952.88;5052323;28;20140;-57
2021/01/06 10:58:42;;;;;;;6.70;1.60;;;;;;;3.40;86.48;101950.94;5052385;28;20037;-57
2021/01/06 11:01:41;;;;;;;5.38;1.38;;;;;;;3.43;86.65;101945.00;5042125;28;20124;-57
2021/01/06 11:04:21;;;;;;;3.78;1.25;;;;;;;3.41;86.92;101946.28;5052405;28;20048;-56
2021/01/06 11:06:54;;;;;;;4.95;1.55;;;;;;;3.43;86.61;101945.00;5052583;28;20045;-58
2021/01/06 11:09:37;;;;;;;3.03;1.40;;;;;;;3.46;86.65;101940.94;5052208;28;20128;-56
2021/01/06 11:12:17;;;;;;;5.03;1.25;;;;;;;3.46;86.55;101940.94;5052778;28;20040;-54
2021/01/06 11:15:03;;;;;;;4.07;1.48;;;;;;;3.46;86.45;101938.19;5052295;28;20462;-56
2021/01/06 11:17:33;;;;;;;2.75;1.35;;;;;;;3.44;86.38;101921.84;5051681;28;20081;-57
2021/01/06 11:20:02;;;;;;;3.60;1.25;;;;;;;3.47;86.35;101924.16;5052325;28;20044;-59
2021/01/06 11:22:38;;;;;;;4.32;1.40;;;;;;;3.50;86.28;101933.91;5051828;28;20048;-58
2021/01/06 11:25:35;;;;;;;4.43;1.55;;;;;;;3.52;86.15;101925.41;5052112;28;20045;-59
2021/01/06 11:28:29;;;;;;;5.85;1.70;;;;;;;3.52;86.10;101925.41;5052172;28;20053;-57
2021/01/06 11:31:25;;;;;;;4.35;1.75;;;;;;;3.50;86.00;101905.47;5051625;28;20099;-59
2021/01/06 11:33:56;;;;;;;6.28;1.60;;;;;;;3.48;86.08;101908.44;5032386;28;20128;-56
2021/01/06 11:36:37;;;;;;;5.28;1.77;;;;;;;3.51;86.13;101909.91;5048131;28;20057;-54
2021/01/06 11:39:07;;;;;;;3.53;1.23;;;;;;;3.54;86.02;101901.19;5052206;28;20052;-55
2021/01/06 11:41:58;;;;;;;3.17;1.20;;;;;;;3.59;85.92;101896.69;5051646;28;20557;-55
2021/01/06 11:44:31;;;;;;;4.75;1.75;;;;;;;3.60;85.82;101890.06;5051485;28;20399;-57
2021/01/06 11:47:25;;;;;;;3.42;1.38;;;;;;;3.63;85.68;101886.00;5051553;28;20123;-57
2021/01/06 11:50:01;;;;;;;6.85;1.98;;;;;;;3.65;85.86;101881.09;5051735;28;20049;-55
2021/01/06 11:52:38;;;;;;;3.38;1.80;;;;;;;3.68;85.50;101883.41;5036086;28;21604;-57
2021/01/06 11:55:39;;;;;;;3.35;1.75;;;;;;;3.69;85.34;101882.34;5052104;28;20076;-59
2021/01/06 11:58:20;;;;;;;5.53;1.98;;;;;;;3.69;85.48;101883.19;5009030;28;20052;-58
2021/01/06 12:01:06;;;;;;;4.68;1.60;;;;;;;3.71;85.64;101881.03;5045744;28;20065;-59
2021/01/06 12:03:42;;;;;;;6.20;2.08;;;;;;;3.73;85.23;101876.16;5050370;28;20119;-58